S&P 500   5,011.12
DOW   37,775.38
QQQ   423.41
What's Driving Tesla Lower Ahead of its Earnings?
How major US stock indexes fared Thursday, 4/18/2024
3 Steel Stocks Could Soar on New China Tariffs
CSX Co.: The Railroad Powering Ahead with an Earnings Beat
'There is no time to waste': EU leaders want to boost competitiveness to close gap with US and China
These are the Top 4 Stocks for Buybacks in 2024
Can Netflix Stock Continue Into All-Time Highs After Earnings?
S&P 500   5,011.12
DOW   37,775.38
QQQ   423.41
What's Driving Tesla Lower Ahead of its Earnings?
How major US stock indexes fared Thursday, 4/18/2024
3 Steel Stocks Could Soar on New China Tariffs
CSX Co.: The Railroad Powering Ahead with an Earnings Beat
'There is no time to waste': EU leaders want to boost competitiveness to close gap with US and China
These are the Top 4 Stocks for Buybacks in 2024
Can Netflix Stock Continue Into All-Time Highs After Earnings?
S&P 500   5,011.12
DOW   37,775.38
QQQ   423.41
What's Driving Tesla Lower Ahead of its Earnings?
How major US stock indexes fared Thursday, 4/18/2024
3 Steel Stocks Could Soar on New China Tariffs
CSX Co.: The Railroad Powering Ahead with an Earnings Beat
'There is no time to waste': EU leaders want to boost competitiveness to close gap with US and China
These are the Top 4 Stocks for Buybacks in 2024
Can Netflix Stock Continue Into All-Time Highs After Earnings?
S&P 500   5,011.12
DOW   37,775.38
QQQ   423.41
What's Driving Tesla Lower Ahead of its Earnings?
How major US stock indexes fared Thursday, 4/18/2024
3 Steel Stocks Could Soar on New China Tariffs
CSX Co.: The Railroad Powering Ahead with an Earnings Beat
'There is no time to waste': EU leaders want to boost competitiveness to close gap with US and China
These are the Top 4 Stocks for Buybacks in 2024
Can Netflix Stock Continue Into All-Time Highs After Earnings?

Liberty Broadband (LBRDK) Institutional Ownership

$48.86
+0.65 (+1.35%)
(As of 04/18/2024 ET)

Institutional Ownership Changes (13F Filings) for Liberty Broadband (NASDAQ:LBRDK)

Current
Institutional Ownership
Percentage
80.22%
Number of
Institutional Buyers
(last 12 months)
259
Total
Institutional Inflows
(last 12 months)
$1.65B
Number of
Institutional Sellers
(last 12 months)
228
Total
Institutional Outflows
(last 12 months)
$1.37B
Get LBRDK Insider Trade Alerts

Want to know when executives and insiders are buying or selling Liberty Broadband stock? Sign up for InsiderTrades.com's daily newsletter to get the latest insider transactions delivered to your inbox daily.

Skip Chart & View Institutional Buying and Selling Data

LBRDK Institutional Buying and Selling by Quarter

Liberty Broadband Major Shareholders & Ownership History

Reporting DateMajor Shareholder NameShares HeldMarket Value% of PortfolioQuarterly Change in SharesOwnership in CompanyDetails
4/16/2024Sendero Wealth Management LLC9,548$546K0.1%-36.1%0.007%
4/16/2024Wealth Enhancement Advisory Services LLC20,275$1.16M0.0%-7.6%0.014%
4/15/2024Chemistry Wealth Management LLC15,348$878K0.2%+29.3%0.011%
4/9/2024 Alaska Permanent Fund Corp36,829$2.11M0.0%+15.4%0.026%
4/5/2024 Los Angeles Capital Management LLC5,742$329K0.0%N/A0.004%
3/22/2024PNC Financial Services Group Inc.77,863$6.28M0.0%-4.2%0.054%
3/21/2024Healthcare of Ontario Pension Plan Trust Fund39,000$3.14M0.0%-69.4%0.027%
3/11/2024Vanguard Group Inc.11,213,505$903.70M0.0%+2.2%7.845%
3/1/2024Royal London Asset Management Ltd.41,353$3.33M0.0%-1.5%0.029%
3/1/2024Goldman Sachs Group Inc.422,179$34.02M0.0%+18.5%0.295%
2/16/2024Price T Rowe Associates Inc. MD67,100$5.41M0.0%+6.1%0.046%
2/16/2024Bluefin Capital Management LLC2,600$211K0.0%N/A0.002%
2/16/2024Public Employees Retirement System of Ohio48,931$3.94M0.0%+2.9%0.033%
2/15/2024Mango Five Family Inc.285,204$22.99M8.7%N/A0.195%
2/15/2024Virtus ETF Advisers LLC6,542$527K0.3%N/A0.004%
2/15/2024Horizon Kinetics Asset Management LLC100,668$8.11M0.2%-7.1%0.069%
2/15/2024Legal & General Group Plc742,735$59.86M0.0%+14.1%0.508%
2/15/2024Barclays PLC3,657,365$294.75M0.1%+36.7%2.504%
2/15/2024Vanguard Group Inc.11,213,505$903.70M0.0%+2.2%7.677%
2/15/2024Voya Investment Management LLC24,847$2.00M0.0%+10.1%0.017%
2/15/2024Venator Management LLC41,450$3.34M1.1%+69.5%0.028%
2/15/2024Whitebox Advisors LLC1,950,922$157.23M4.3%+11.2%1.336%
2/15/2024Wahed Invest LLC1,120$90K0.0%-39.0%0.001%
2/15/2024Wallace Capital Management Inc.114,334$9.21M1.4%-1.9%0.078%
2/15/2024 Weiss Multi Strategy Advisers LLC12,392$999K0.0%-57.3%0.008%
2/15/2024Nuveen Asset Management LLC357,916$28.84M0.0%+52.3%0.245%
2/15/2024Price T Rowe Associates Inc. MD67,100$5.41M0.0%+6.1%0.046%
2/15/2024Fort Baker Capital Management LP43,572$3.51M0.4%-86.9%0.030%
2/15/2024Gamco Investors INC. ET AL166,448$13.41M0.1%-4.7%0.114%
2/15/2024Groupama Asset Managment318$26K0.0%N/A0.000%
2/15/2024Healthcare of Ontario Pension Plan Trust Fund39,000$3.14M0.0%-69.4%0.027%
2/15/2024Brevan Howard Capital Management LP3,373$272K0.0%N/A0.002%
2/15/2024Comerica Bank19,500$1.57M0.0%+2.4%0.013%
2/14/2024Royal Bank of Canada667,542$53.80M0.0%+6.0%0.457%
2/14/2024Pathstone Holdings LLC20,455$1.65M0.0%N/A0.014%
2/14/2024Mango Investments LLC615,085$49.57M31.2%N/A0.421%
2/14/2024Point72 Hong Kong Ltd5,557$448K0.0%N/A0.004%
2/14/2024Kestra Advisory Services LLC4,042$326K0.0%N/A0.003%
2/14/2024Point72 Asset Management L.P.69,600$5.61M0.0%-50.1%0.048%
2/14/2024Nebula Research & Development LLC12,342$995K0.3%N/A0.008%
The “Perfect Storm” for Gold (Ad)

Gold has already reached all-time highs, and experts believe it's not slowing down any time soon. In fact, some analysts predict a $7,000 price tag by 2025.

Click here now to download the free Precious Metals Buying Guide!
2/14/2024Bridgewater Associates LP265,860$21.43M0.1%+23.4%0.182%
2/14/2024Invenomic Capital Management LP181,653$14.64M0.7%N/A0.124%
2/14/2024Cheviot Value Management LLC119,816$9.73M2.1%-6.5%0.082%
2/14/2024Cresset Asset Management LLC66,382$5.35M0.0%-4.9%0.045%
2/14/2024Verition Fund Management LLC2,703$218K0.0%-8.1%0.002%
2/14/2024Elo Mutual Pension Insurance Co10,447$842K0.0%N/A0.007%
2/14/2024Sei Investments Co.19,856$1.60M0.0%+20.0%0.014%
2/14/2024Ossiam371,894$29.97M0.5%+2.3%0.255%
2/14/2024Seven Eight Capital LP4,129$333K0.0%N/A0.003%
2/14/2024Weik Capital Management18,202$1.47M0.7%-1.8%0.012%
2/14/2024Schroder Investment Management Group28,476$2.30M0.0%+9.0%0.019%
2/13/2024Envestnet Asset Management Inc.138,393$11.15M0.0%-11.6%0.095%
2/13/2024Stephens Inc. AR10,885$877K0.0%-3.6%0.007%
2/13/2024Northern Trust Corp811,632$65.41M0.0%-7.3%0.556%
2/13/2024Cibc World Markets Corp3,333$269K0.0%N/A0.002%
2/13/2024Gabelli Funds LLC250,470$20.19M0.2%-5.8%0.171%
2/13/2024Public Employees Retirement Association of Colorado14,317$1.15M0.0%-24.5%0.010%
2/13/2024Tower Research Capital LLC TRC978$79K0.0%+423.0%0.001%
2/13/2024First Trust Advisors LP89,935$7.25M0.0%N/A0.062%
2/13/2024Goldman Sachs Group Inc.422,179$34.02M0.0%+18.5%0.289%
2/13/2024Royal London Asset Management Ltd.41,353$3.33M0.0%-1.5%0.028%
2/13/2024CIBC Asset Management Inc3,850$310K0.0%-7.0%0.003%
2/13/2024The Manufacturers Life Insurance Company 4,303$347K0.0%-29.1%0.003%
2/13/2024Finepoint Capital LP184,460$14.87M4.2%N/A0.126%
2/13/2024KBC Group NV48,151$3.88M0.0%-44.9%0.033%
2/13/2024California State Teachers Retirement System174,062$14.03M0.0%-4.5%0.119%
2/12/2024Alberta Investment Management Corp88,800$7.16M0.1%N/A0.061%
2/12/2024Sprinkle Financial Consultants LLC3,058$246K0.3%N/A0.002%
2/12/2024Madison Asset Management LLC1,247,990$100.58M1.4%-2.1%0.854%
2/12/2024Brown Brothers Harriman & Co.9,788$789K0.0%-27.1%0.007%
2/12/2024Bank of Nova Scotia132,264$10.66M0.0%+32.5%0.091%
2/12/2024TFO Wealth Partners LLC2,926$236K0.0%+146,200.0%0.002%
2/12/2024Treasurer of the State of North Carolina53,955$4.35M0.0%+2.5%0.037%
2/12/2024Highbridge Capital Management LLC917,547$73.95M3.0%+6.5%0.628%
2/12/2024Allianz Asset Management GmbH65,165$5.25M0.0%+14.4%0.045%
2/12/2024Crescent Park Management L.P.111,925$9.02M2.0%-17.7%0.077%
2/12/2024Stifel Financial Corp90,597$7.30M0.0%+0.9%0.062%
2/12/2024TD Asset Management Inc10,849$874K0.0%+24.8%0.007%
2/12/2024Weitz Investment Management Inc.685,500$55.24M2.9%+3.0%0.469%
2/12/2024S&CO Inc.269,984$21.76M1.7%-7.3%0.185%
2/12/2024Hsbc Holdings PLC91,127$7.35M0.0%+9.8%0.062%
2/9/2024Intech Investment Management LLC7,078$570K0.0%-24.8%0.005%
2/9/2024Johnson Financial Group Inc.4,475$361K0.0%N/A0.003%
2/9/2024FineMark National Bank & Trust19,275$1.55M0.1%N/A0.013%
2/9/2024US Bancorp DE4,395$354K0.0%+86.3%0.003%
2/9/2024Annis Gardner Whiting Capital Advisors LLC6,265$505K0.2%+12.4%0.004%
2/9/2024Aigen Investment Management LP3,094$249K0.0%N/A0.002%
2/9/2024Franklin Resources Inc.151,155$12.18M0.0%-23.8%0.103%
2/9/2024Investment Management Associates Inc. ADV73,419$5.92M2.3%+7.3%0.050%
2/9/2024Clearbridge Investments LLC353,321$28.47M0.0%-52.2%0.242%
You’re invited: Biggest crypto event of 2024 (Ad)

During the event on Tuesday, April 23 at 10 am ET, I’ll be giving away the name and ticker symbol of crypto that could surge in price. I believe it will be the best performing crypto of 2024.

Just click here to sign up and be among the first to get it.
2/9/2024Wells Fargo & Company MN275,521$22.20M0.0%-20.7%0.189%
2/9/2024NFC Investments LLC128,067$10.32M3.2%N/A0.088%
2/9/2024UBS Group AG8,410,411$677.80M0.2%-2.5%5.758%
2/9/2024PNC Financial Services Group Inc.77,863$6.28M0.0%-4.2%0.053%
2/9/2024BI Asset Management Fondsmaeglerselskab A S2,850$230K0.0%-11.3%0.002%
2/9/2024Norges Bank1,294,981$104.36M0.0%N/A0.887%
2/8/2024ING Groep NV14,600$1.18M0.0%-85.1%0.010%
2/8/2024Brown Advisory Inc.20,747$1.67M0.0%-2.0%0.014%
2/8/2024Robeco Institutional Asset Management B.V.21,935$1.77M0.0%-26.0%0.015%
2/8/2024Panagora Asset Management Inc.23,728$1.91M0.0%+65.7%0.016%
(Data available from 1/1/2016 forward)

LBRDK Institutional Ownership - Frequently Asked Questions

Who are the largest shareholders of LBRDK shares?

During the previous two years, 553 institutional investors and hedge funds held shares of Liberty Broadband. The most heavily invested institutionals were Vanguard Group Inc. ($903.70M), UBS Group AG ($677.80M), Aristeia Capital LLC ($587.70M), BlackRock Inc. ($559.90M), Massachusetts Financial Services Co. MA ($381.91M), Barclays PLC ($294.75M), and Ruane Cunniff & Goldfarb L.P. ($290.51M).Learn more on LBRDK's institutional investors.

What percentage of Liberty Broadband stock is owned by institutional investors?

80.22% of Liberty Broadband stock is owned by institutional investors. Learn more on LBRDK's institutional investor holdings.

Which institutional investors have been buying Liberty Broadband stock?

Of the 442 institutional investors that purchased Liberty Broadband stock in the last 24 months, the following investors and hedge funds have bought the highest volume of shares: UBS Group AG ($6.12M), Barclays PLC ($3.13M), Norges Bank ($2.79M), Assenagon Asset Management S.A. ($2.31M), Aristeia Capital LLC ($1.90M), Dorsal Capital Management LLC ($1.30M), and Thompson Siegel & Walmsley LLC ($1.26M).

How much institutional buying is happening at Liberty Broadband?

Institutional investors have bought a total of 46,363,009 shares in the last 24 months. This purchase volume represents approximately $4.10B in transactions.

Which Liberty Broadband major shareholders have been selling company stock?

Of the 374 institutional investors that sold Liberty Broadband stock in the last 24 months, the following investors and hedge funds have sold the highest volume of shares: UBS Group AG ($2.53M), JPMorgan Chase & Co. ($2.39M), Principal Financial Group Inc. ($2.36M), Deutsche Bank AG ($1.67M), Dorsal Capital Management LLC ($1.53M), Soros Fund Management LLC ($1.50M), and Massachusetts Financial Services Co. MA ($1.30M).

How much institutional selling is happening at Liberty Broadband?

Institutional investors have sold a total of 37,538,388 shares in the last 24 months. This volume of shares sold represents approximately $3.41B in transactions.


This page (NASDAQ:LBRDK) was last updated on 4/19/2024 by MarketBeat.com Staff

From Our Partners